Houlton, ME

8:33 PM EDT on May 25, 2015 (GMT -0400)
Houlton International | | Change Station
CLOSE
Current Station
Airport
Location: Houlton,
Elevation: 492 ft
Nearby Weather Stations
Active Advisory: Special Statement

Elev 492 ft 46.12 °N, 67.79 °W | Updated 40 minutes ago

Clear
Clear
70 °F
Feels Like 70 °F
N
5
Wind Variable Wind from SW

Today
High -- | Low -- °F
--% Chance of Precip.
Yesterday
High -- | Low -- °F
Precip. -- in
4:48 AM 8:08 PM
First Quarter, 53% visible
Pressure 30.06 in
Visibility 10.0 miles
Clouds Overcast 11000 ft
Dew Point 47 °F
Humidity 44%
Rainfall 0.00 in
Snow Depth Not available.
UV 0 out of 12
Pollen 9.10 out of 12
Air Quality Not available.
Flu Activity Local Activity
METAR KHUL 252353Z AUTO 22004KT 10SM OVC110 21/08 A3006 RMK AO2 SLP178 T02110083 10267 20211 51007

More Conditions Fewer Conditions

Pressure 30.06 in
Visibility 10.0 miles
Clouds Overcast 11000 ft
Dew Point 47 °F
Humidity 44%
Rainfall 0.00 in
Snow Depth Not available.
UV 0 out of 12
Pollen 9.10 out of 12
Air Quality Not available.
Flu Activity Local Activity
METAR KHUL 252353Z AUTO 22004KT 10SM OVC110 21/08 A3006 RMK AO2 SLP178 T02110083 10267 20211 51007

More Conditions Fewer Conditions

10-Day Weather Forecast

Almanac

Astronomy

May. 25, 2015 Rise Set
Actual Time
Civil Twilight
Nautical Twilight
Astronomical Twilight
Moon
Length of Visible Light
Length of Day
Tomorrow will be .
, % of the Moon is Illuminated

Today's Extremes

State Highs State Lows

Community

WunderPhotos

Upload Photos

1,824,187 photos uploaded!

WunderBlogs® & News

Nearby

Air Quality

  Air Quality AQ Index Pollutant
Not available.

Snow Depth

Station Depth Elevation

Earthquake Activity

City Distance Mag. Time & Date
Minimum magnitude displayed is 2.5.

Coastal Water Temperatures

Place Temperature

Stations

Nearby Weather Stations

Station Location Temp. Windchill Dew Point Humidity Wind Precip. Elev Updated Type
                   
Special Statement
Statement as of 3:34 PM EDT on May 25, 2015

... High fire danger across northern and eastern Maine...

The Maine Forest service has indicated that the wildfire danger
across northern and eastern Maine is high. The combination of low
relative humidity... wind gusts to 25 mph... and dry conditions will
cause any fires that ignite this afternoon to spread rapidly.

You should check with your local Fire Department or forestry
office before doing any burning. Please remember that a burn
permit is required for all burning.